Dunbar, NE (68346)

12:39 PM CDT on March 30, 2017 (GMT -0500)
Hawkins Home - Northeast | | Change Station

Elev 1100 ft 40.66 °N, 96.18 °W | Updated 12 seconds ago

Overcast
Overcast
42.3 °F
Feels Like 38 °F
N
6.9
Wind Variable Wind from NW
Gusts 6.9 mph

Today
High -- | Low -- °F
--% Chance of Precip.
Yesterday
High -- | Low -- °F
Precip. -- in
Pressure 29.67 in
Visibility 5.0 miles
Clouds Mostly Cloudy 500 ft
Overcast 900 ft
Windchill 38 °F
Dew Point 41 °F
Humidity 94%
Rainfall 0.32 in
Snow Depth Not available.
7:10 AM 7:47 PM
Waxing Crescent, 9% visible
METAR KAFK 301735Z AUTO 02014KT 5SM BR BKN005 OVC009 06/06 A2967 RMK AO2 T00560056
Pressure 29.67 in
Visibility 5.0 miles
Clouds Mostly Cloudy 500 ft
Overcast 900 ft
Windchill 38 °F
Dew Point 41 °F
Humidity 94%
Rainfall 0.32 in
Snow Depth Not available.
7:10 AM 7:47 PM
Waxing Crescent, 9% visible
METAR KAFK 301735Z AUTO 02014KT 5SM BR BKN005 OVC009 06/06 A2967 RMK AO2 T00560056

Get Severe Weather Alerts

Thanks for signing up!

Be on the lookout for a verification email in your inbox.

You'll start receiving the daily forecast at 8 AM.

×

10-Day Weather Forecast

Almanac

Astronomy

Mar. 30, 2017 Rise Set
Actual Time
Civil Twilight
Nautical Twilight
Astronomical Twilight
Moon
Length of Visible Light
Length of Day
Tomorrow will be .
, % of the Moon is Illuminated

Today's Extremes

State Highs State Lows

Community

WunderPhotos

Upload Photos

1,962,540 photos uploaded!

WunderBlog® & News

Nearby

Air Quality

  Air Quality AQ Index Pollutant
Not available.

Snow Depth

Station Depth Elevation

Earthquake Activity

City Distance Mag. Time & Date
Minimum magnitude displayed is 2.5.

Earthquake Activity

City Distance Mag. Time & Date
Minimum magnitude displayed is 2.5.

Coastal Water Temperatures

Place Temperature

Stations

Nearby Weather Stations

Station Location Temp. Windchill Dew Point Humidity Wind Precip. Elev Updated Type
                   

Watches & Warnings

There are currently no watches in effect.